createdAt,value
2023-05-02T00:00:20.121Z,1011.1
2023-05-02T00:15:20.449Z,1011
2023-05-02T00:30:20.500Z,1010.9
2023-05-02T00:45:20.447Z,1011
2023-05-02T01:00:19.823Z,1011.1
2023-05-02T01:15:20.218Z,1011.1
2023-05-02T01:30:20.107Z,1011.1
2023-05-02T01:45:19.523Z,1011.2
2023-05-02T02:00:20.452Z,1011.3
2023-05-02T02:15:19.852Z,1011.6
2023-05-02T02:30:20.457Z,1011.9
2023-05-02T02:45:19.306Z,1012.3
2023-05-02T03:00:19.828Z,1012.7
2023-05-02T03:15:25.471Z,1013
2023-05-02T03:30:20.264Z,1013.3
2023-05-02T03:45:19.422Z,1013.5
2023-05-02T04:03:18.126Z,1013.7
2023-05-02T04:15:19.957Z,1014
2023-05-02T04:30:19.800Z,1014.3
2023-05-02T04:45:20.100Z,1014.5
2023-05-02T05:00:19.820Z,1014.8
2023-05-02T05:15:24.458Z,1015
2023-05-02T05:30:20.079Z,1015.2
2023-05-02T05:45:20.251Z,1015.4
2023-05-02T06:00:19.473Z,1015.5
2023-05-02T06:15:19.949Z,1015.8
2023-05-02T06:30:20.198Z,1016
2023-05-02T06:45:19.177Z,1016.2
2023-05-02T07:00:19.955Z,1016.5
2023-05-02T07:15:20.117Z,1016.7
2023-05-02T07:30:19.446Z,1016.9
2023-05-02T07:45:19.484Z,1017.1
2023-05-02T08:00:20.166Z,1017.2
2023-05-02T08:15:19.730Z,1017.4
2023-05-02T08:30:19.734Z,1017.5
2023-05-02T08:45:19.808Z,1017.7
2023-05-02T09:00:29.217Z,1017.8
2023-05-02T09:15:21.299Z,1018
2023-05-02T09:30:20.072Z,1018.2
2023-05-02T09:45:20.105Z,1018.5
2023-05-02T10:00:19.972Z,1018.5
2023-05-02T10:15:20.216Z,1018.6
2023-05-02T10:30:20.073Z,1018.7
2023-05-02T10:45:19.798Z,1018.8
2023-05-02T11:00:19.953Z,1018.8
2023-05-02T11:15:20.059Z,1019
2023-05-02T11:30:19.988Z,1019.2
2023-05-02T11:45:19.516Z,1019.2
2023-05-02T12:00:20.107Z,1019.4
2023-05-02T12:15:20.216Z,1019.7
2023-05-02T12:30:20.041Z,1019.7
2023-05-02T12:45:20.239Z,1019.9
2023-05-02T13:00:19.952Z,1020.2
2023-05-02T13:15:20.339Z,1020.2
2023-05-02T13:30:20.422Z,1020.3
2023-05-02T13:45:20.357Z,1020.4
2023-05-02T14:00:19.638Z,1020.4
2023-05-02T14:15:19.951Z,1020.5
2023-05-02T14:30:19.700Z,1020.6
2023-05-02T14:45:20.435Z,1020.7
2023-05-02T15:00:20.727Z,1020.8
2023-05-02T15:15:19.966Z,1020.9
2023-05-02T15:30:23.636Z,1021
2023-05-02T15:45:19.768Z,1021.2
2023-05-02T16:00:30.013Z,1021.3
2023-05-02T16:15:20.057Z,1021.4
2023-05-02T16:30:20.659Z,1021.5
2023-05-02T16:45:19.687Z,1021.6
2023-05-02T17:00:20.432Z,1021.7
2023-05-02T17:15:20.073Z,1021.8
2023-05-02T17:30:20.575Z,1021.9
2023-05-02T17:45:20.089Z,1021.9
2023-05-02T18:00:21.627Z,1022
2023-05-02T18:15:20.278Z,1022.2
2023-05-02T18:30:19.869Z,1022.3
2023-05-02T18:45:20.009Z,1022.4
2023-05-02T19:00:20.642Z,1022.4
2023-05-02T19:15:20.276Z,1022.6
2023-05-02T19:30:20.306Z,1022.7
2023-05-02T19:45:20.288Z,1022.9
2023-05-02T20:00:20.113Z,1023
2023-05-02T20:15:19.542Z,1023.1
2023-05-02T20:30:19.615Z,1023.2
2023-05-02T20:45:20.401Z,1023.3
2023-05-02T21:00:20.578Z,1023.3
2023-05-02T21:15:19.881Z,1023.4
2023-05-02T21:30:20.070Z,1023.4
2023-05-02T21:45:19.611Z,1023.4
2023-05-02T22:00:20.372Z,1023.5
2023-05-02T22:15:20.516Z,1023.5
2023-05-02T22:30:20.458Z,1023.5
2023-05-02T22:45:19.569Z,1023.6
2023-05-02T23:00:20.514Z,1023.7
2023-05-02T23:15:20.439Z,1023.7
2023-05-02T23:30:19.465Z,1023.8
2023-05-02T23:45:19.432Z,1023.9
